Portada
METAR-TAF:

METAR-TAF

Aeropuertos :

Parque Nacional Hwange, Zimbabue

latitud: 18-38S, longitud: 027-00E, altitud: 1079 m

Observación

El informe se hizo hace 1 hora y 11 minutos, a las 12:00 UTC
Viento 9 kt del este-noreste
Temperatura 32°C
Humedad 15%
Presión 1018 hPa
Visibilidad 10 km o más
sin nubes por debajo de 1500 m y sin presencia de cumulonimbus.

METAR: FVWN 231200Z 07009KT CAVOK 32/02 Q1018 NOSIG

Hora: 15:11 (13:11 UTC)


TAF: falta

Observaciones y pronósticos meteorológicos de más de 4000 aeropuertos (mensajes METAR y TAF).

Los puntos amarillos y rojos representan las estaciones disponibles.

Ponga el ratón en el punto deseado para ver el nombre de la estación.

Haga clic para ver las observaciones y los pronósticos meteorológicos.

Para cambiar el mapa : haga clic en los botones verdes con una cruz de color negro para hacer un zoom, en el botón verde con un guión para alejar o en las flechas verdes para mapas adyacentes.


METAR-TAF: